Time;durP1;ratioP1;P1;durP2;ratioP2;P2;SDS_P1;SDS_P2;PMS_P1;PMS_P2;Temp;Humidity;BMP_temperature;BMP_pressure;BME280_temperature;BME280_humidity;BME280_pressure;Samples;Min_cycle;Max_cycle;Signal;HPM_P1;HPM_P2
2024/03/24 00:01:05;;;;;;;14.90;9.02;;;;;;;6.81;100.00;98009.81;5020442;28;20471;-72
2024/03/24 00:03:31;;;;;;;15.15;9.73;;;;;;;6.77;100.00;98011.16;5003999;28;20045;-72
2024/03/24 00:05:57;;;;;;;14.02;9.25;;;;;;;6.77;100.00;98011.16;5020070;28;20052;-70
2024/03/24 00:08:23;;;;;;;13.55;8.90;;;;;;;6.75;100.00;98009.66;5037283;28;20041;-72
2024/03/24 00:10:49;;;;;;;14.90;9.35;;;;;;;6.75;100.00;97994.69;5053183;28;20502;-71
2024/03/24 00:13:15;;;;;;;12.25;8.55;;;;;;;6.80;100.00;98007.34;5036162;28;20056;-71
2024/03/24 00:15:41;;;;;;;14.93;9.07;;;;;;;6.84;100.00;98014.72;5035240;28;20033;-71
2024/03/24 00:18:08;;;;;;;16.30;9.75;;;;;;;6.83;100.00;98009.63;5035403;28;20211;-72
2024/03/24 00:20:35;;;;;;;13.95;9.00;;;;;;;6.81;100.00;98015.09;5034254;28;20044;-74
2024/03/24 00:23:01;;;;;;;15.40;9.65;;;;;;;6.71;100.00;98008.38;5035119;28;20052;-74
2024/03/24 00:25:27;;;;;;;14.38;9.73;;;;;;;6.68;100.00;98016.66;5035977;28;20139;-74
2024/03/24 00:27:54;;;;;;;13.10;8.65;;;;;;;6.73;100.00;98006.41;5053252;28;20099;-77
2024/03/24 00:30:20;;;;;;;13.80;8.93;;;;;;;6.68;100.00;98006.94;5019305;28;20037;-74
2024/03/24 00:32:51;;;;;;;16.60;10.23;;;;;;;6.63;100.00;98001.34;5019689;28;20064;-74
2024/03/24 00:35:19;;;;;;;14.82;8.93;;;;;;;6.67;100.00;98007.91;5036844;28;20162;-74
2024/03/24 00:37:46;;;;;;;14.15;8.95;;;;;;;6.62;100.00;98010.25;5004039;28;20119;-74
2024/03/24 00:40:13;;;;;;;16.20;10.57;;;;;;;6.63;100.00;98003.97;5002956;28;20047;-74
2024/03/24 00:42:40;;;;;;;15.35;9.50;;;;;;;6.60;100.00;98003.50;5002916;28;20047;-74
2024/03/24 00:45:07;;;;;;;16.23;10.43;;;;;;;6.56;100.00;98004.84;4999445;28;20061;-72
2024/03/24 00:47:33;;;;;;;16.60;9.20;;;;;;;6.52;100.00;98001.72;4983142;28;20128;-71
2024/03/24 00:49:59;;;;;;;15.63;9.23;;;;;;;6.54;100.00;97985.72;4998827;28;20045;-73
2024/03/24 00:52:25;;;;;;;15.05;8.20;;;;;;;6.54;100.00;97996.28;5000413;28;20052;-72
2024/03/24 00:54:51;;;;;;;25.50;10.68;;;;;;;6.51;100.00;97989.53;4984421;28;20041;-72
2024/03/24 00:57:17;;;;;;;15.25;8.57;;;;;;;6.54;100.00;97998.91;4967779;28;20045;-71
2024/03/24 00:59:43;;;;;;;15.52;9.55;;;;;;;6.51;100.00;97989.53;5016605;28;20033;-72
2024/03/24 01:02:09;;;;;;;17.00;9.02;;;;;;;6.57;100.00;97978.28;4983094;28;20163;-73
2024/03/24 01:04:34;;;;;;;17.20;9.68;;;;;;;6.58;100.00;97987.84;5014950;28;20140;-73
2024/03/24 01:07:00;;;;;;;33.08;11.05;;;;;;;6.48;100.00;97976.72;4982400;28;20049;-73
2024/03/24 01:09:26;;;;;;;15.98;9.48;;;;;;;6.61;100.00;97976.94;5015012;28;20584;-73
2024/03/24 01:12:00;;;;;;;23.15;10.18;;;;;;;6.60;100.00;97980.59;5088911;28;20397;-72
2024/03/24 01:14:28;;;;;;;15.98;9.15;;;;;;;6.65;100.00;97974.78;5055034;28;20146;-72
2024/03/24 01:16:54;;;;;;;14.52;9.05;;;;;;;6.69;100.00;97979.53;5038436;28;20498;-71
2024/03/24 01:19:24;;;;;;;18.33;8.85;;;;;;;6.75;100.00;97980.66;5039950;28;20044;-71
2024/03/24 01:21:53;;;;;;;15.65;8.68;;;;;;;6.83;100.00;97976.16;5054568;28;20455;-72
2024/03/24 01:24:19;;;;;;;16.08;8.90;;;;;;;6.84;100.00;97980.44;5088143;28;20041;-69
2024/03/24 01:26:45;;;;;;;13.52;8.27;;;;;;;6.85;100.00;97971.53;5054648;28;20052;-70
2024/03/24 01:29:13;;;;;;;15.40;8.88;;;;;;;6.90;100.00;97986.84;5037852;28;20052;-72
2024/03/24 01:31:39;;;;;;;18.75;10.18;;;;;;;6.88;100.00;97984.38;5071193;28;20048;-70
2024/03/24 01:34:05;;;;;;;16.23;8.90;;;;;;;6.97;100.00;97981.66;5054281;28;20036;-70
2024/03/24 01:36:31;;;;;;;18.50;9.45;;;;;;;6.93;100.00;97982.03;5070779;28;20048;-70
2024/03/24 01:38:57;;;;;;;20.48;11.50;;;;;;;6.95;100.00;97978.41;5037679;28;20383;-70
2024/03/24 01:41:23;;;;;;;17.90;9.73;;;;;;;6.98;100.00;97970.94;5037453;28;20105;-70
2024/03/24 01:43:49;;;;;;;16.33;9.45;;;;;;;7.03;100.00;97970.44;5054098;28;20090;-72
2024/03/24 01:46:14;;;;;;;22.77;10.38;;;;;;;6.95;100.00;97959.94;5064092;28;20074;-71
2024/03/24 01:48:41;;;;;;;19.40;9.60;;;;;;;7.07;100.00;97967.25;5033925;28;20106;-71
2024/03/24 01:51:09;;;;;;;18.95;9.20;;;;;;;7.17;100.00;97967.00;5034172;28;20041;-70
2024/03/24 01:53:38;;;;;;;19.20;10.30;;;;;;;7.21;100.00;97971.75;5034074;28;20106;-71
2024/03/24 01:56:05;;;;;;;17.73;10.15;;;;;;;7.16;100.00;97962.72;5067098;28;20040;-71
2024/03/24 01:58:33;;;;;;;17.60;9.90;;;;;;;7.17;100.00;97952.00;5029456;28;20455;-71
2024/03/24 02:00:59;;;;;;;18.20;9.15;;;;;;;7.14;100.00;97962.06;5013108;28;20092;-71
2024/03/24 02:03:27;;;;;;;25.25;9.85;;;;;;;7.15;100.00;97958.47;4997599;28;20073;-71
2024/03/24 02:05:53;;;;;;;16.42;9.38;;;;;;;7.11;100.00;97957.16;4997771;28;20052;-71
2024/03/24 02:08:20;;;;;;;17.80;9.65;;;;;;;7.12;100.00;97964.09;4997027;28;20061;-71
2024/03/24 02:10:46;;;;;;;19.00;9.77;;;;;;;7.11;100.00;97967.72;5003042;28;20060;-71
2024/03/24 02:13:13;;;;;;;15.43;9.40;;;;;;;7.06;100.00;97978.00;4961695;28;20578;-71
2024/03/24 02:15:39;;;;;;;21.10;10.70;;;;;;;6.96;100.00;97970.31;4977104;28;20042;-71
2024/03/24 02:18:05;;;;;;;18.15;10.50;;;;;;;6.90;100.00;97985.00;4977729;28;20045;-74
2024/03/24 02:20:31;;;;;;;16.95;9.75;;;;;;;6.96;100.00;97966.84;4965015;28;20051;-73
2024/03/24 02:22:56;;;;;;;18.33;10.15;;;;;;;6.97;100.00;97973.75;4970844;28;20041;-72
2024/03/24 02:25:22;;;;;;;19.73;10.18;;;;;;;6.97;100.00;97965.84;4967535;28;20547;-72
2024/03/24 02:27:48;;;;;;;19.35;9.95;;;;;;;7.03;100.00;97965.16;4965600;28;20470;-72
2024/03/24 02:30:14;;;;;;;17.08;9.68;;;;;;;7.04;100.00;97972.06;4993754;28;20579;-72
2024/03/24 02:32:44;;;;;;;16.13;9.38;;;;;;;7.10;100.00;97971.34;4981028;28;20144;-74
2024/03/24 02:35:10;;;;;;;18.77;9.95;;;;;;;6.98;100.00;97978.06;4997359;28;20045;-74
2024/03/24 02:37:36;;;;;;;19.45;10.52;;;;;;;6.85;100.00;97984.75;4981060;28;20042;-76
2024/03/24 02:40:05;;;;;;;20.98;11.15;;;;;;;6.78;100.00;97986.41;4980991;28;20034;-77
2024/03/24 02:42:32;;;;;;;19.50;11.05;;;;;;;6.73;100.00;97999.28;4981428;28;20061;-76
2024/03/24 02:44:57;;;;;;;19.02;10.10;;;;;;;6.72;100.00;97997.66;4997415;28;20053;-75
2024/03/24 02:47:24;;;;;;;16.20;10.80;;;;;;;6.70;100.00;97989.09;4980832;28;20044;-75
2024/03/24 02:49:54;;;;;;;20.90;10.23;;;;;;;6.68;100.00;97995.53;4997309;28;20073;-72
2024/03/24 02:52:20;;;;;;;18.93;10.80;;;;;;;6.65;100.00;97995.88;5029354;28;20056;-74
2024/03/24 02:54:46;;;;;;;15.95;9.55;;;;;;;6.59;100.00;97988.69;4980630;28;20054;-74
2024/03/24 02:57:12;;;;;;;16.70;10.15;;;;;;;6.66;100.00;97985.16;4965827;28;20246;-74
2024/03/24 02:59:39;;;;;;;25.40;11.32;;;;;;;6.66;100.00;97984.34;4999952;28;20142;-74
2024/03/24 03:02:05;;;;;;;19.25;10.38;;;;;;;6.67;100.00;97983.38;4998688;28;20122;-74
2024/03/24 03:04:35;;;;;;;22.20;11.32;;;;;;;6.66;100.00;97987.81;4921676;29;20518;-74
2024/03/24 03:07:03;;;;;;;17.58;10.05;;;;;;;6.73;100.00;97985.31;4937828;29;20122;-73
2024/03/24 03:09:32;;;;;;;18.27;9.80;;;;;;;6.72;100.00;97979.19;4953220;28;20062;-74
2024/03/24 03:11:59;;;;;;;19.40;10.30;;;;;;;6.75;100.00;97980.66;4921451;29;20066;-74
2024/03/24 03:14:25;;;;;;;18.15;10.05;;;;;;;6.66;100.00;97990.44;4937824;29;20059;-74
2024/03/24 03:16:51;;;;;;;18.40;10.57;;;;;;;6.57;100.00;97975.66;4902598;29;20283;-74
2024/03/24 03:19:17;;;;;;;19.55;10.77;;;;;;;6.58;100.00;97979.13;4886797;29;20048;-74
2024/03/24 03:21:43;;;;;;;20.33;9.82;;;;;;;6.51;100.00;97976.34;4902349;29;20087;-72
2024/03/24 03:24:09;;;;;;;20.17;10.02;;;;;;;6.50;100.00;97990.50;4918493;29;20098;-72
2024/03/24 03:26:35;;;;;;;17.27;10.00;;;;;;;6.46;100.00;97976.03;4886866;29;20082;-71
2024/03/24 03:29:02;;;;;;;46.28;11.85;;;;;;;6.42;100.00;97972.13;4886860;29;20060;-71
2024/03/24 03:31:27;;;;;;;20.92;11.02;;;;;;;6.39;100.00;97984.81;4886402;29;20505;-71
2024/03/24 03:33:53;;;;;;;44.13;12.90;;;;;;;6.34;100.00;97981.88;4914214;29;20151;-72
2024/03/24 03:36:19;;;;;;;41.50;12.82;;;;;;;6.26;100.00;97988.00;4915231;29;20061;-72
2024/03/24 03:38:45;;;;;;;20.52;10.63;;;;;;;6.26;100.00;97979.25;4937061;28;20077;-71
2024/03/24 03:41:11;;;;;;;26.30;10.43;;;;;;;6.24;100.00;97979.44;4921207;28;20054;-71
2024/03/24 03:43:39;;;;;;;21.48;10.60;;;;;;;6.27;100.00;97996.75;4937378;29;20053;-71
2024/03/24 03:46:06;;;;;;;25.80;11.50;;;;;;;6.25;100.00;97986.38;4921104;29;20047;-71
2024/03/24 03:48:35;;;;;;;48.45;13.45;;;;;;;6.26;100.00;97988.00;4952621;28;20160;-71
2024/03/24 03:51:07;;;;;;;66.28;12.18;;;;;;;6.30;100.00;97985.84;4921214;29;20166;-71
2024/03/24 03:53:37;;;;;;;23.52;10.98;;;;;;;6.21;100.00;97989.53;4930615;28;20489;-71
2024/03/24 03:56:03;;;;;;;27.33;9.98;;;;;;;6.16;100.00;97984.75;4953765;28;20054;-71
2024/03/24 03:58:29;;;;;;;32.22;10.10;;;;;;;6.17;100.00;97983.75;4924152;28;20078;-71
2024/03/24 04:00:55;;;;;;;44.65;11.32;;;;;;;6.16;100.00;97986.56;4956474;28;20504;-72
2024/03/24 04:03:26;;;;;;;112.13;14.63;;;;;;;6.23;100.00;97977.78;4956321;28;20077;-73
2024/03/24 04:05:58;;;;;;;45.92;11.30;;;;;;;6.22;100.00;97975.34;4924228;28;20098;-73
2024/03/24 04:08:25;;;;;;;86.07;12.02;;;;;;;6.13;100.00;97974.56;4925325;28;20086;-72
2024/03/24 04:10:51;;;;;;;105.45;13.48;;;;;;;6.15;100.00;97969.13;4965713;28;20160;-73
2024/03/24 04:13:19;;;;;;;22.83;10.70;;;;;;;6.18;100.00;97974.03;4958775;28;20124;-73
2024/03/24 04:15:47;;;;;;;31.63;12.48;;;;;;;6.27;100.00;97989.63;4942658;28;20101;-73
2024/03/24 04:18:14;;;;;;;36.00;11.02;;;;;;;6.23;100.00;97983.06;4942764;28;20255;-75
2024/03/24 04:20:41;;;;;;;24.15;10.63;;;;;;;6.31;100.00;97984.84;4958683;28;20065;-73
2024/03/24 04:23:10;;;;;;;24.42;10.55;;;;;;;6.31;100.00;97990.94;4926822;28;20451;-73
2024/03/24 04:25:42;;;;;;;110.75;14.25;;;;;;;6.31;100.00;97990.13;4958860;28;20043;-73
2024/03/24 04:28:08;;;;;;;29.50;11.02;;;;;;;6.30;100.00;97980.59;4939027;28;20069;-73
2024/03/24 04:30:36;;;;;;;37.60;10.60;;;;;;;6.30;100.00;97985.84;4923368;28;20469;-73
2024/03/24 04:33:02;;;;;;;119.13;14.88;;;;;;;6.28;100.00;97975.47;4981751;28;20564;-73
2024/03/24 04:35:29;;;;;;;24.25;10.52;;;;;;;6.31;100.00;97976.94;4978113;28;20060;-72
2024/03/24 04:37:55;;;;;;;20.27;10.70;;;;;;;6.35;100.00;97986.97;4994258;28;20061;-72
2024/03/24 04:40:21;;;;;;;31.92;10.38;;;;;;;6.33;100.00;97991.63;4977268;28;20050;-73
2024/03/24 04:42:47;;;;;;;33.92;11.05;;;;;;;6.29;100.00;97987.66;4993926;28;20058;-72
2024/03/24 04:45:14;;;;;;;22.58;11.52;;;;;;;6.32;100.00;97991.78;4993736;28;20135;-73
2024/03/24 04:47:39;;;;;;;101.63;14.00;;;;;;;6.31;100.00;97990.13;4995346;28;20589;-72
2024/03/24 04:50:07;;;;;;;62.75;11.80;;;;;;;6.36;100.00;97983.34;4972390;28;20500;-69
2024/03/24 04:52:36;;;;;;;21.73;10.00;;;;;;;6.44;100.00;97988.56;4971205;28;20624;-72
2024/03/24 04:55:04;;;;;;;82.20;14.48;;;;;;;6.51;100.00;97979.00;4907409;28;20061;-72
2024/03/24 04:57:30;;;;;;;105.57;14.95;;;;;;;6.49;100.00;97991.53;4955257;28;20058;-72
2024/03/24 04:59:57;;;;;;;84.88;14.02;;;;;;;6.47;100.00;97977.69;4958873;28;20146;-73
2024/03/24 05:02:25;;;;;;;42.80;12.52;;;;;;;6.45;100.00;97995.50;4943692;28;20053;-72
2024/03/24 05:04:51;;;;;;;68.15;11.57;;;;;;;6.43;100.00;97997.47;4975699;28;20058;-71
2024/03/24 05:07:18;;;;;;;119.85;15.25;;;;;;;6.40;100.00;98000.47;4975086;28;20046;-71
2024/03/24 05:09:45;;;;;;;180.82;18.35;;;;;;;6.33;100.00;97988.97;4961622;28;20058;-71
2024/03/24 05:12:12;;;;;;;88.45;12.43;;;;;;;6.43;100.00;97984.31;4996245;28;20451;-73
2024/03/24 05:14:39;;;;;;;26.05;9.88;;;;;;;6.52;100.00;97974.53;4990216;28;20489;-72
2024/03/24 05:17:05;;;;;;;25.10;9.77;;;;;;;6.55;100.00;97974.22;4958351;28;20042;-71
2024/03/24 05:19:33;;;;;;;23.08;11.07;;;;;;;6.70;100.00;97973.25;4954956;28;20466;-70
2024/03/24 05:22:00;;;;;;;24.48;10.82;;;;;;;6.64;100.00;97971.31;4923611;28;20086;-70
2024/03/24 05:24:27;;;;;;;49.88;12.20;;;;;;;6.57;100.00;97972.19;4955606;28;20062;-72
2024/03/24 05:26:54;;;;;;;54.67;12.18;;;;;;;6.61;100.00;97976.94;4970681;28;20125;-71
2024/03/24 05:29:20;;;;;;;27.95;10.60;;;;;;;6.58;100.00;97964.09;4954865;28;20054;-71
2024/03/24 05:31:56;;;;;;;48.80;12.15;;;;;;;6.67;100.00;97980.72;4972218;28;20043;-71
2024/03/24 05:34:25;;;;;;;17.92;9.70;;;;;;;6.66;100.00;97969.34;4985807;28;20058;-71
2024/03/24 05:36:54;;;;;;;26.52;10.15;;;;;;;6.65;100.00;97972.97;4955764;28;20071;-69
2024/03/24 05:39:20;;;;;;;45.90;11.77;;;;;;;6.74;100.00;97979.84;4954674;28;20481;-69
2024/03/24 05:41:50;;;;;;;23.77;11.23;;;;;;;6.77;100.00;97971.59;4939658;28;20058;-69
2024/03/24 05:44:17;;;;;;;38.15;12.38;;;;;;;6.67;100.00;97965.69;4957201;28;20075;-69
2024/03/24 05:46:43;;;;;;;24.63;10.60;;;;;;;6.66;100.00;97963.25;4977612;28;20104;-71
2024/03/24 05:49:13;;;;;;;22.02;10.63;;;;;;;6.68;100.00;97966.53;4961675;28;20052;-72
2024/03/24 05:51:39;;;;;;;23.05;10.50;;;;;;;6.68;100.00;97987.63;4978086;28;20137;-72
2024/03/24 05:54:06;;;;;;;36.67;10.95;;;;;;;6.62;100.00;97975.13;4970833;28;20069;-72
2024/03/24 05:56:35;;;;;;;19.30;9.60;;;;;;;6.82;100.00;97961.34;4971479;28;20503;-72
2024/03/24 05:59:03;;;;;;;18.83;9.35;;;;;;;6.82;100.00;97961.34;4955748;29;20062;-71
2024/03/24 06:01:33;;;;;;;18.83;9.38;;;;;;;6.89;100.00;97958.78;4938849;29;20058;-71
2024/03/24 06:04:02;;;;;;;19.90;10.07;;;;;;;6.82;100.00;97957.88;4970851;28;20050;-71
2024/03/24 06:06:28;;;;;;;17.65;8.48;;;;;;;7.01;100.00;97954.78;4938625;29;20134;-70
2024/03/24 06:08:56;;;;;;;17.02;8.25;;;;;;;7.11;100.00;97951.88;4954521;29;20553;-70
2024/03/24 06:11:24;;;;;;;14.07;8.38;;;;;;;7.16;100.00;97939.81;4922650;29;20177;-71
2024/03/24 06:13:56;;;;;;;14.48;8.90;;;;;;;7.27;100.00;97941.19;4950726;29;20075;-73
2024/03/24 06:16:22;;;;;;;15.18;8.40;;;;;;;7.28;100.00;97940.19;4906148;29;20061;-71
2024/03/24 06:18:52;;;;;;;16.58;8.65;;;;;;;7.41;100.00;97940.41;4892984;29;20071;-72
2024/03/24 06:21:20;;;;;;;18.13;8.90;;;;;;;7.34;100.00;97931.53;4899727;29;20051;-72
2024/03/24 06:23:51;;;;;;;16.45;9.00;;;;;;;7.34;100.00;97947.38;4882946;29;20499;-70
2024/03/24 06:26:18;;;;;;;18.77;10.02;;;;;;;7.35;100.00;97955.13;4882366;29;20144;-71
2024/03/24 06:28:44;;;;;;;18.58;8.15;;;;;;;7.44;100.00;97942.69;4858466;29;20111;-70
2024/03/24 06:31:14;;;;;;;14.75;8.00;;;;;;;7.58;100.00;97944.53;4894692;29;20059;-70
2024/03/24 06:33:41;;;;;;;12.80;7.57;;;;;;;7.64;100.00;97946.47;4925761;29;20418;-70
2024/03/24 06:36:08;;;;;;;13.85;8.43;;;;;;;7.56;100.00;97938.59;4925064;29;20048;-70
2024/03/24 06:38:34;;;;;;;13.95;7.90;;;;;;;7.69;100.00;97949.34;4923753;29;20118;-73
2024/03/24 06:41:06;;;;;;;11.55;7.15;;;;;;;7.87;100.00;97942.72;4909833;29;20043;-72
2024/03/24 06:43:36;;;;;;;15.18;8.57;;;;;;;7.70;100.00;97937.81;4910516;29;20044;-69
2024/03/24 06:46:03;;;;;;;15.20;8.20;;;;;;;7.78;100.00;97940.38;4938886;29;20394;-69
2024/03/24 06:48:31;;;;;;;14.85;7.38;;;;;;;7.87;100.00;97931.34;4914512;29;20150;-75
2024/03/24 06:51:07;;;;;;;14.50;7.95;;;;;;;8.01;100.00;97925.25;4929797;29;20067;-72
2024/03/24 06:53:40;;;;;;;11.05;7.22;;;;;;;8.12;100.00;97920.28;4914076;29;20059;-72
2024/03/24 06:56:08;;;;;;;10.55;6.50;;;;;;;8.31;100.00;97927.69;4886789;29;20075;-72
2024/03/24 06:58:34;;;;;;;12.65;7.70;;;;;;;8.32;100.00;97924.03;4934971;29;20161;-72
2024/03/24 07:01:01;;;;;;;13.68;7.03;;;;;;;8.36;100.00;97929.78;4935554;29;20114;-73
2024/03/24 07:03:27;;;;;;;13.23;7.75;;;;;;;8.21;100.00;97924.47;4937553;28;20526;-74
2024/03/24 07:05:53;;;;;;;15.45;8.65;;;;;;;8.19;100.00;97930.97;4957088;28;20057;-76
2024/03/24 07:08:19;;;;;;;14.88;8.48;;;;;;;7.99;100.00;97924.59;4922345;28;20055;-73
2024/03/24 07:10:52;;;;;;;16.60;9.57;;;;;;;7.87;100.00;97918.13;4952822;28;20062;-75
2024/03/24 07:13:18;;;;;;;14.55;8.60;;;;;;;7.81;100.00;97913.56;4956279;28;20043;-73
2024/03/24 07:15:44;;;;;;;12.55;7.80;;;;;;;7.97;100.00;97927.41;4979711;28;20429;-73
2024/03/24 07:18:12;;;;;;;12.73;7.82;;;;;;;8.04;100.00;97923.03;4978092;28;20494;-72
2024/03/24 07:20:38;;;;;;;11.35;8.05;;;;;;;7.97;100.00;97910.72;4951284;28;20104;-72
2024/03/24 07:23:05;;;;;;;15.73;8.48;;;;;;;7.97;100.00;97921.31;4966776;28;20038;-75
2024/03/24 07:25:39;;;;;;;14.07;9.10;;;;;;;7.82;100.00;97916.03;4974248;28;20050;-74
2024/03/24 07:28:09;;;;;;;12.50;8.52;;;;;;;7.92;100.00;97921.03;4992755;28;20038;-71
2024/03/24 07:30:35;;;;;;;12.90;8.35;;;;;;;7.78;100.00;97908.66;5018729;28;20422;-73
2024/03/24 07:33:05;;;;;;;14.82;8.43;;;;;;;7.77;100.00;97917.56;5009575;28;20091;-72
2024/03/24 07:35:31;;;;;;;13.80;7.63;;;;;;;7.68;100.00;97905.44;5007463;28;20045;-72
2024/03/24 07:38:05;;;;;;;15.48;8.02;;;;;;;7.77;100.00;97899.06;5010155;28;20135;-73
2024/03/24 07:40:32;;;;;;;17.23;9.65;;;;;;;7.57;100.00;97895.31;5049066;28;20049;-74
2024/03/24 07:42:58;;;;;;;15.65;9.40;;;;;;;7.62;100.00;97899.09;5011760;28;20058;-74
2024/03/24 07:45:30;;;;;;;17.20;9.90;;;;;;;7.58;100.00;97891.72;4994988;28;20157;-74
2024/03/24 07:47:56;;;;;;;32.00;13.60;;;;;;;7.33;100.00;97885.84;4994660;28;20046;-74
2024/03/24 07:50:27;;;;;;;41.88;12.52;;;;;;;7.30;100.00;97874.81;4992834;28;20042;-75
2024/03/24 07:52:55;;;;;;;17.10;9.75;;;;;;;7.47;100.00;97887.69;5011722;28;20065;-74
2024/03/24 07:55:21;;;;;;;38.45;11.82;;;;;;;7.56;100.00;97891.06;5010891;28;20108;-75
2024/03/24 07:57:47;;;;;;;29.27;11.18;;;;;;;7.51;100.00;97883.69;4978592;28;20081;-74
2024/03/24 08:00:16;;;;;;;48.40;12.77;;;;;;;7.50;100.00;97878.59;4994784;28;20053;-75
2024/03/24 08:02:42;;;;;;;31.40;10.80;;;;;;;7.39;100.00;97884.31;4978846;28;20115;-74
2024/03/24 08:05:09;;;;;;;33.50;11.40;;;;;;;7.26;100.00;97890.19;4994763;28;20447;-75
2024/03/24 08:07:36;;;;;;;43.75;11.18;;;;;;;7.27;100.00;97888.38;4978531;28;20056;-76
2024/03/24 08:10:04;;;;;;;19.83;10.10;;;;;;;7.41;100.00;97883.09;4994373;28;20570;-75
2024/03/24 08:12:32;;;;;;;18.83;9.35;;;;;;;7.76;100.00;97884.22;4962138;28;20046;-75
2024/03/24 08:14:59;;;;;;;26.23;10.02;;;;;;;7.72;100.00;97883.75;4994530;28;20045;-75
2024/03/24 08:17:26;;;;;;;15.77;9.43;;;;;;;7.85;100.00;97880.50;4939674;28;20050;-75
2024/03/24 08:19:53;;;;;;;18.27;9.80;;;;;;;7.77;100.00;97880.56;4955918;28;20065;-75
2024/03/24 08:22:31;;;;;;;19.83;10.32;;;;;;;7.84;100.00;97873.56;4956818;28;20138;-74
2024/03/24 08:24:57;;;;;;;18.27;9.55;;;;;;;7.90;100.00;97872.84;4971345;28;20399;-73
2024/03/24 08:27:23;;;;;;;21.30;10.45;;;;;;;7.71;100.00;97854.88;4971406;28;20145;-73
2024/03/24 08:29:49;;;;;;;20.00;10.95;;;;;;;7.67;100.00;97862.34;4908158;28;20051;-73
2024/03/24 08:32:16;;;;;;;20.80;10.98;;;;;;;7.61;100.00;97860.44;4958161;28;20457;-72
2024/03/24 08:34:43;;;;;;;18.80;10.55;;;;;;;7.69;100.00;97855.06;4942877;28;20054;-74
2024/03/24 08:37:10;;;;;;;25.35;11.98;;;;;;;7.63;100.00;97857.63;4942698;28;20905;-72
2024/03/24 08:39:36;;;;;;;23.80;12.07;;;;;;;7.52;100.00;97842.25;4917053;29;20176;-73
2024/03/24 08:42:03;;;;;;;21.95;11.70;;;;;;;7.71;100.00;97852.25;4901203;29;20066;-74
2024/03/24 08:44:29;;;;;;;20.08;10.90;;;;;;;7.78;100.00;97843.41;4863562;29;20147;-73
2024/03/24 08:46:55;;;;;;;26.33;12.00;;;;;;;7.73;100.00;97837.03;4884731;29;20468;-72
2024/03/24 08:49:25;;;;;;;23.50;11.70;;;;;;;7.67;100.00;97835.13;4951244;28;20553;-73
2024/03/24 08:51:52;;;;;;;19.20;10.48;;;;;;;7.75;100.00;97827.91;4955473;28;20055;-73
2024/03/24 08:54:19;;;;;;;21.45;11.68;;;;;;;7.85;100.00;97819.72;4955497;28;20140;-74
2024/03/24 08:56:45;;;;;;;20.92;10.98;;;;;;;7.92;100.00;97820.59;4938851;28;20055;-73
2024/03/24 08:59:11;;;;;;;18.90;10.63;;;;;;;8.04;100.00;97817.28;4955602;28;20121;-73
2024/03/24 09:01:38;;;;;;;22.50;10.93;;;;;;;8.09;100.00;97820.19;4971447;28;20143;-73
2024/03/24 09:04:13;;;;;;;19.33;10.15;;;;;;;8.13;100.00;97813.53;4970189;28;20051;-73
2024/03/24 09:06:44;;;;;;;20.20;10.38;;;;;;;8.08;100.00;97820.38;4897947;29;20052;-72
2024/03/24 09:09:12;;;;;;;24.58;11.90;;;;;;;7.95;100.00;97810.47;4898196;29;20143;-72
2024/03/24 09:11:42;;;;;;;23.55;11.88;;;;;;;8.03;100.00;97810.38;4931724;29;20155;-73
2024/03/24 09:14:10;;;;;;;27.48;13.18;;;;;;;7.95;100.00;97805.19;4878987;29;20049;-72
2024/03/24 09:16:37;;;;;;;26.40;12.18;;;;;;;8.03;100.00;97805.09;4848170;29;20053;-73
2024/03/24 09:19:04;;;;;;;21.40;12.18;;;;;;;8.05;100.00;97797.78;4879221;29;20083;-73
2024/03/24 09:21:32;;;;;;;23.95;11.57;;;;;;;8.13;100.00;97791.56;4863373;29;20096;-73
2024/03/24 09:23:58;;;;;;;21.95;11.45;;;;;;;8.27;100.00;97793.38;4843245;29;20205;-73
2024/03/24 09:26:24;;;;;;;24.67;12.45;;;;;;;8.22;100.00;97803.66;4844738;29;20048;-74
2024/03/24 09:28:51;;;;;;;23.40;12.43;;;;;;;8.15;100.00;97794.81;4860258;29;20063;-78
2024/03/24 09:31:25;;;;;;;21.13;11.57;;;;;;;8.14;100.00;97794.03;4861906;29;20377;-74
2024/03/24 09:33:52;;;;;;;23.38;12.63;;;;;;;8.07;100.00;97787.84;4848624;29;20065;-74
2024/03/24 09:36:18;;;;;;;22.20;12.30;;;;;;;8.06;100.00;97790.66;4832985;29;20049;-74
2024/03/24 09:38:44;;;;;;;23.35;12.77;;;;;;;8.04;100.00;97777.63;4897172;29;20059;-75
2024/03/24 09:44:07;;;;;;;24.85;13.43;;;;;;;7.99;100.00;97776.56;4876984;29;20123;-75
2024/03/24 09:46:32;;;;;;;23.40;12.60;;;;;;;8.16;100.00;97770.84;4869041;29;20151;-75
2024/03/24 09:49:02;;;;;;;21.55;11.70;;;;;;;8.26;100.00;97762.63;4870402;29;20151;-73
2024/03/24 09:51:31;;;;;;;23.30;12.00;;;;;;;8.30;100.00;97766.56;4886249;29;20131;-72
2024/03/24 09:53:58;;;;;;;22.90;11.77;;;;;;;8.25;100.00;97756.56;4869530;29;20148;-71
2024/03/24 09:56:25;;;;;;;21.70;12.57;;;;;;;8.29;100.00;97760.44;4896743;29;20043;-72
2024/03/24 09:58:52;;;;;;;24.10;13.32;;;;;;;8.28;100.00;97772.03;4922645;29;20114;-74
2024/03/24 10:01:18;;;;;;;24.25;12.32;;;;;;;8.25;100.00;97768.94;4938967;29;20051;-74
2024/03/24 10:03:44;;;;;;;21.30;11.48;;;;;;;8.26;100.00;97754.69;4931244;28;20145;-76
2024/03/24 10:06:12;;;;;;;21.23;11.13;;;;;;;8.27;100.00;97748.44;4969908;28;20142;-76
2024/03/24 10:08:39;;;;;;;20.58;11.35;;;;;;;8.33;100.00;97750.31;4921364;28;20153;-75
2024/03/24 10:11:28;;;;;;;22.80;11.80;;;;;;;8.45;100.00;97740.84;4953526;28;20190;-74
2024/03/24 10:13:55;;;;;;;22.05;11.10;;;;;;;8.42;100.00;97750.00;4971830;28;20435;-74
2024/03/24 10:16:26;;;;;;;22.10;11.52;;;;;;;8.33;100.00;97742.38;4988024;28;20361;-75
2024/03/24 10:18:55;;;;;;;22.33;11.33;;;;;;;8.25;100.00;97721.34;4926595;28;20152;-73
2024/03/24 10:21:22;;;;;;;22.25;12.95;;;;;;;8.19;100.00;97733.47;4976314;28;20364;-74
2024/03/24 10:23:51;;;;;;;20.10;11.10;;;;;;;8.21;100.00;97714.78;4987614;28;20149;-74
2024/03/24 10:26:22;;;;;;;22.35;11.73;;;;;;;8.29;100.00;97722.59;4951602;28;20069;-73
2024/03/24 10:28:50;;;;;;;20.57;11.40;;;;;;;8.27;100.00;97728.06;4974755;28;20069;-72
2024/03/24 10:31:20;;;;;;;21.40;12.48;;;;;;;8.17;100.00;97724.09;4963409;28;20611;-72
2024/03/24 10:33:52;;;;;;;21.40;11.95;;;;;;;8.19;100.00;97716.78;4987622;28;20042;-74
2024/03/24 10:36:18;;;;;;;21.33;11.88;;;;;;;8.10;100.00;97708.16;4994154;28;20098;-73
2024/03/24 10:38:46;;;;;;;19.75;10.18;;;;;;;8.15;100.00;97718.16;4913317;29;20055;-74
2024/03/24 10:41:14;;;;;;;20.50;11.60;;;;;;;8.14;100.00;97711.25;4915094;29;20167;-72
2024/03/24 10:43:47;;;;;;;24.05;11.02;;;;;;;8.26;100.00;97694.72;4913272;29;20154;-73
2024/03/24 10:46:17;;;;;;;22.08;12.68;;;;;;;8.26;100.00;97701.81;4906533;28;20051;-74
2024/03/24 10:48:45;;;;;;;18.95;10.48;;;;;;;8.30;100.00;97695.16;4919620;29;20142;-74
2024/03/24 10:51:15;;;;;;;17.98;10.43;;;;;;;8.30;100.00;97688.03;4894877;29;20491;-73
2024/03/24 10:53:46;;;;;;;25.10;11.05;;;;;;;8.33;100.00;97682.34;4892897;29;20141;-75
2024/03/24 10:56:13;;;;;;;19.30;11.40;;;;;;;8.31;100.00;97696.78;4896278;29;20142;-76
2024/03/24 10:58:40;;;;;;;18.35;10.57;;;;;;;8.33;100.00;97689.50;4899544;29;20052;-75
2024/03/24 11:01:07;;;;;;;26.83;13.30;;;;;;;8.21;100.00;97690.97;4903537;29;20055;-75
2024/03/24 11:03:35;;;;;;;23.30;12.65;;;;;;;8.22;100.00;97687.31;4915721;29;20070;-76
2024/03/24 11:06:04;;;;;;;20.70;10.88;;;;;;;8.36;100.00;97687.25;4899810;29;20574;-77
2024/03/24 11:08:38;;;;;;;22.02;11.43;;;;;;;8.22;100.00;97690.81;4883123;29;20204;-75
2024/03/24 11:11:08;;;;;;;23.73;11.18;;;;;;;8.07;100.00;97690.03;4881412;29;20044;-75
2024/03/24 11:13:37;;;;;;;21.83;12.45;;;;;;;8.02;100.00;97699.53;4873539;29;20123;-76
2024/03/24 11:16:07;;;;;;;20.42;10.73;;;;;;;8.11;100.00;97693.94;4915500;29;20052;-74
2024/03/24 11:18:34;;;;;;;18.63;10.45;;;;;;;8.09;100.00;97695.94;4914726;29;20052;-76
2024/03/24 11:21:08;;;;;;;21.92;10.57;;;;;;;8.18;100.00;97688.72;4910620;29;20088;-72
2024/03/24 11:23:42;;;;;;;23.70;11.77;;;;;;;8.21;100.00;97688.34;4914749;29;20058;-74